M/V Port Eads — WDD9878 — position and weather

sailwx.info

Track history (hours):
 
Tides and Currents Weather Stations Pressure Air Temp Water Temp Dewpoint Dewpoint Depression Visibility Wind Speed Wind Dir Waves Ship Positions

M/V Port Eads

Owner: Port Eads, LLC, Houma, LA. More information available from US FCC via Universal Licensing System and Coast Guard Vessel Documentation Center.

Last reported at 2018-Feb-21 09:47 UTC. Time now 2018-Feb-22 03:02 UTC.
Position N 27°01' W 079°56'.

Length 47 m.

Type: Cargo ship. MMSI: 367317530.

Date/timePositionNaut miles runAvg speedWind from/ knotsBaromVisibWave heightAir tempDewpointWater temp
2018-Feb-21 09:47N 27°01' W 079°56'413.3
2018-Feb-21 09:30N 26°58' W 079°56'612.9
2018-Feb-21 09:00N 26°51' W 079°56'3112.0
2018-Feb-21 06:23N 26°20' W 079°57'411.7
2018-Feb-21 06:00N 26°15' W 079°57'611.7
2018-Feb-21 05:30N 26°10' W 079°58'611.5
2018-Feb-21 05:00N 26°04' W 079°58'611.0
2018-Feb-21 04:30N 25°58' W 079°59'510.2
2018-Feb-21 04:00N 25°53' W 079°59'510.2
2018-Feb-21 03:30N 25°48' W 079°59'510.0
2018-Feb-21 03:00N 25°43' W 079°60'510.4
2018-Feb-21 02:30N 25°38' W 080°01'611.0
2018-Feb-21 02:00N 25°32' W 080°01'  
Track history (hours):
 
Tides and Currents Weather Stations Pressure Air Temp Water Temp Dewpoint Dewpoint Depression Visibility Wind Speed Wind Dir Waves Ship Positions

M/V Port Eads

Owner: Port Eads, LLC, Houma, LA. More information available from US FCC via Universal Licensing System and Coast Guard Vessel Documentation Center.

Last reported at 2018-Feb-21 09:47 UTC. Time now 2018-Feb-22 03:02 UTC.
Position N 27°01' W 079°56'.

Length 47 m.

Type: Cargo ship. MMSI: 367317530.

Date/timePositionNaut miles runAvg speedWind from/ knotsBaromVisibWave heightAir tempDewpointWater temp
2018-Feb-21 09:47N 27°01' W 079°56'413.3
2018-Feb-21 09:30N 26°58' W 079°56'612.9
2018-Feb-21 09:00N 26°51' W 079°56'3112.0
2018-Feb-21 06:23N 26°20' W 079°57'411.7
2018-Feb-21 06:00N 26°15' W 079°57'611.7
2018-Feb-21 05:30N 26°10' W 079°58'611.5
2018-Feb-21 05:00N 26°04' W 079°58'611.0
2018-Feb-21 04:30N 25°58' W 079°59'510.2
2018-Feb-21 04:00N 25°53' W 079°59'510.2
2018-Feb-21 03:30N 25°48' W 079°59'510.0
2018-Feb-21 03:00N 25°43' W 079°60'510.4
2018-Feb-21 02:30N 25°38' W 080°01'611.0
2018-Feb-21 02:00N 25°32' W 080°01'  

Dump ship's entire track history